Terminal Aerodrome Forecast
Issued by NWS Austin/San Antonio, TX

Home | Current Version | Previous Version | Text Only | Print | Product List | Glossary On
Versions: 1 2 3 4 5 6 7 8 9 10 11 12 13 14 15 16 17 18
000
FTUS44 KEWX 031724
TAFSAT
TAF
KSAT 031724Z 0318/0424 12005KT P6SM SCT020 BKN050
     FM032200 13010KT P6SM SCT060
     FM040800 16005KT P6SM BKN015
     FM041500 14010KT P6SM SCT020 BKN050=

USA.gov is the U.S. government's official web portal to all federal, state and local government web resources and services.